Time;durP1;ratioP1;P1;durP2;ratioP2;P2;SDS_P1;SDS_P2;PMS_P1;PMS_P2;Temp;Humidity;BMP_temperature;BMP_pressure;BME280_temperature;BME280_humidity;BME280_pressure;Samples;Min_cycle;Max_cycle;Signal;HPM_P1;HPM_P2
2021/10/10 00:01:41;;;;;;;;;;;22.20;44.20;;;;;;1536926;76;1125;-68
2021/10/10 00:03:43;;;;;;;;;;;22.30;44.20;;;;;;1534477;75;697;-68
2021/10/10 00:05:45;;;;;;;;;;;22.20;44.10;;;;;;1529840;76;653;-69
2021/10/10 00:07:47;;;;;;;;;;;22.30;44.20;;;;;;1532847;75;653;-68
2021/10/10 00:09:49;;;;;;;;;;;22.30;44.20;;;;;;1526559;75;738;-69
2021/10/10 00:11:51;;;;;;;;;;;22.30;44.20;;;;;;1536258;76;1119;-68
2021/10/10 00:13:53;;;;;;;;;;;22.20;44.10;;;;;;1528509;75;774;-69
2021/10/10 00:15:55;;;;;;;;;;;22.20;44.10;;;;;;1531846;75;635;-69
2021/10/10 00:17:56;;;;;;;;;;;22.30;44.20;;;;;;1534016;75;1953;-69
2021/10/10 00:19:58;;;;;;;;;;;22.30;44.10;;;;;;1528828;76;716;-69
2021/10/10 00:22:00;;;;;;;;;;;22.30;44.10;;;;;;1548782;75;757;-68
2021/10/10 00:24:02;;;;;;;;;;;22.30;44.10;;;;;;1559763;75;665;-68
2021/10/10 00:26:04;;;;;;;;;;;22.20;43.90;;;;;;1541720;75;771;-68
2021/10/10 00:28:06;;;;;;;;;;;22.30;44.00;;;;;;1535238;76;694;-68
2021/10/10 00:30:08;;;;;;;;;;;22.20;43.90;;;;;;1537512;76;1155;-69
2021/10/10 00:32:10;;;;;;;;;;;22.20;43.80;;;;;;1545339;75;718;-68
2021/10/10 00:34:12;;;;;;;;;;;22.30;44.00;;;;;;1531885;76;657;-68
2021/10/10 00:36:14;;;;;;;;;;;22.20;43.80;;;;;;1527581;77;733;-68
2021/10/10 00:38:15;;;;;;;;;;;22.30;43.90;;;;;;1534736;77;1948;-68
2021/10/10 00:40:17;;;;;;;;;;;22.20;43.80;;;;;;1531699;74;1140;-68
2021/10/10 00:42:19;;;;;;;;;;;22.30;43.90;;;;;;1524201;75;773;-69
2021/10/10 00:44:21;;;;;;;;;;;22.20;43.70;;;;;;1530732;77;737;-68
2021/10/10 00:46:23;;;;;;;;;;;22.30;43.90;;;;;;1537902;77;698;-69
2021/10/10 00:48:25;;;;;;;;;;;22.20;43.70;;;;;;1522219;75;693;-69
2021/10/10 00:50:27;;;;;;;;;;;22.20;43.60;;;;;;1528824;75;1155;-69
2021/10/10 00:52:29;;;;;;;;;;;22.30;43.80;;;;;;1537325;76;669;-69
2021/10/10 00:54:31;;;;;;;;;;;22.20;43.60;;;;;;1532900;76;736;-69
2021/10/10 00:56:33;;;;;;;;;;;22.20;43.70;;;;;;1528678;75;837;-69
2021/10/10 00:58:34;;;;;;;;;;;22.20;43.70;;;;;;1537227;75;1940;-69
2021/10/10 01:00:37;;;;;;;;;;;22.20;43.70;;;;;;1539029;76;1228;-70
2021/10/10 01:02:40;;;;;;;;;;;22.20;43.60;;;;;;1505911;78;741;-70
2021/10/10 01:04:42;;;;;;;;;;;22.20;43.60;;;;;;1521311;75;734;-70
2021/10/10 01:06:44;;;;;;;;;;;22.10;43.60;;;;;;1522653;75;790;-69
2021/10/10 01:08:45;;;;;;;;;;;22.20;43.60;;;;;;1532166;76;795;-70
2021/10/10 01:10:48;;;;;;;;;;;22.20;43.60;;;;;;1533013;74;2723;-74
2021/10/10 01:12:50;;;;;;;;;;;22.10;43.60;;;;;;1557655;75;707;-74
2021/10/10 01:14:52;;;;;;;;;;;22.10;43.60;;;;;;1541224;77;681;-73
2021/10/10 01:16:53;;;;;;;;;;;22.10;43.60;;;;;;1562014;76;1943;-74
2021/10/10 01:18:56;;;;;;;;;;;22.20;43.60;;;;;;1567146;75;763;-74
2021/10/10 01:20:58;;;;;;;;;;;22.20;43.60;;;;;;1558104;74;1304;-75
2021/10/10 01:23:00;;;;;;;;;;;22.10;43.60;;;;;;1566693;75;701;-75
2021/10/10 01:25:02;;;;;;;;;;;22.10;43.60;;;;;;1568759;75;770;-74
2021/10/10 01:27:04;;;;;;;;;;;22.10;43.60;;;;;;1540264;77;745;-74
2021/10/10 01:29:06;;;;;;;;;;;22.10;43.50;;;;;;1541460;77;731;-74
2021/10/10 01:31:08;;;;;;;;;;;22.10;43.60;;;;;;1541120;76;1145;-74
2021/10/10 01:33:10;;;;;;;;;;;22.10;43.50;;;;;;1531224;77;688;-74
2021/10/10 01:35:12;;;;;;;;;;;22.10;43.50;;;;;;1529188;76;721;-74
2021/10/10 01:37:14;;;;;;;;;;;22.10;43.50;;;;;;1598294;74;1922;-74
2021/10/10 01:39:16;;;;;;;;;;;22.20;43.50;;;;;;1597830;74;740;-74
2021/10/10 01:41:18;;;;;;;;;;;22.10;43.50;;;;;;1563410;74;1136;-76
2021/10/10 01:43:20;;;;;;;;;;;22.10;43.40;;;;;;1593370;74;665;-72
2021/10/10 01:45:22;;;;;;;;;;;22.20;43.40;;;;;;1599383;74;737;-72
2021/10/10 01:47:24;;;;;;;;;;;22.10;43.50;;;;;;1599106;74;740;-73
2021/10/10 01:49:26;;;;;;;;;;;22.20;43.50;;;;;;1571123;74;731;-74
2021/10/10 01:51:28;;;;;;;;;;;22.20;43.40;;;;;;1591962;74;1144;-75
2021/10/10 01:53:30;;;;;;;;;;;22.10;43.40;;;;;;1580545;74;756;-74
2021/10/10 01:55:32;;;;;;;;;;;22.10;43.40;;;;;;1606283;74;791;-75
2021/10/10 01:57:34;;;;;;;;;;;22.10;43.40;;;;;;1599210;74;1925;-73
2021/10/10 01:59:35;;;;;;;;;;;22.10;43.40;;;;;;1588111;74;711;-73
2021/10/10 02:01:37;;;;;;;;;;;22.10;43.40;;;;;;1571711;74;1165;-73
2021/10/10 02:03:39;;;;;;;;;;;22.20;43.30;;;;;;1578408;75;811;-75
2021/10/10 02:05:41;;;;;;;;;;;22.10;43.30;;;;;;1599668;74;937;-74
2021/10/10 02:07:43;;;;;;;;;;;22.10;43.20;;;;;;1599307;74;721;-73
2021/10/10 02:09:45;;;;;;;;;;;22.10;43.20;;;;;;1584133;74;720;-73
2021/10/10 02:11:47;;;;;;;;;;;22.10;43.20;;;;;;1562358;74;1145;-70
2021/10/10 02:13:49;;;;;;;;;;;22.10;43.20;;;;;;1584989;74;922;-72
2021/10/10 02:15:51;;;;;;;;;;;22.10;43.10;;;;;;1591001;74;828;-72
2021/10/10 02:17:53;;;;;;;;;;;22.10;43.20;;;;;;1590641;74;1937;-74
2021/10/10 02:19:54;;;;;;;;;;;22.10;43.20;;;;;;1583250;74;645;-75
2021/10/10 02:21:56;;;;;;;;;;;22.10;43.10;;;;;;1564685;74;1135;-75
2021/10/10 02:23:58;;;;;;;;;;;22.10;43.20;;;;;;1556881;74;812;-74
2021/10/10 02:26:00;;;;;;;;;;;22.10;43.20;;;;;;1591315;74;746;-72
2021/10/10 02:28:02;;;;;;;;;;;22.10;43.10;;;;;;1570398;74;779;-71
2021/10/10 02:30:04;;;;;;;;;;;22.10;43.10;;;;;;1569469;74;714;-71
2021/10/10 02:32:06;;;;;;;;;;;22.10;43.10;;;;;;1580524;74;1113;-72
2021/10/10 02:34:08;;;;;;;;;;;22.20;43.10;;;;;;1560289;74;778;-72
2021/10/10 02:36:10;;;;;;;;;;;22.20;43.00;;;;;;1591377;74;622;-75
2021/10/10 02:38:12;;;;;;;;;;;22.20;43.00;;;;;;1597277;74;1930;-74
2021/10/10 02:40:14;;;;;;;;;;;22.20;42.90;;;;;;1583095;74;807;-71
2021/10/10 02:42:15;;;;;;;;;;;22.40;42.90;;;;;;1588680;74;1124;-74
2021/10/10 02:44:17;;;;;;;;;;;22.40;42.70;;;;;;1592760;74;676;-76
2021/10/10 02:46:19;;;;;;;;;;;22.50;42.60;;;;;;1586588;74;774;-73
2021/10/10 02:48:21;;;;;;;;;;;22.50;42.10;;;;;;1577447;74;792;-71
2021/10/10 02:50:23;;;;;;;;;;;22.40;42.00;;;;;;1590829;74;1140;-70
2021/10/10 02:52:25;;;;;;;;;;;22.40;41.90;;;;;;1588413;74;710;-70
2021/10/10 02:54:27;;;;;;;;;;;22.50;42.20;;;;;;1591481;74;771;-70
2021/10/10 02:56:29;;;;;;;;;;;22.40;42.00;;;;;;1597707;74;750;-74
2021/10/10 02:58:31;;;;;;;;;;;22.30;42.00;;;;;;1580859;74;1948;-70
2021/10/10 03:00:33;;;;;;;;;;;22.30;41.80;;;;;;1582020;74;1181;-66
2021/10/10 03:02:35;;;;;;;;;;;22.30;41.80;;;;;;1579673;74;790;-71
2021/10/10 03:04:37;;;;;;;;;;;22.20;41.80;;;;;;1584602;74;685;-72
2021/10/10 03:06:39;;;;;;;;;;;22.20;41.80;;;;;;1588834;74;748;-64
2021/10/10 03:08:40;;;;;;;;;;;22.30;41.80;;;;;;1591624;74;809;-70
2021/10/10 03:10:42;;;;;;;;;;;22.30;41.80;;;;;;1583906;73;1225;-69
2021/10/10 03:12:44;;;;;;;;;;;22.30;41.80;;;;;;1591852;74;738;-69
2021/10/10 03:14:46;;;;;;;;;;;22.20;41.70;;;;;;1591509;74;668;-69
2021/10/10 03:16:48;;;;;;;;;;;22.20;41.60;;;;;;1561480;74;786;-71
2021/10/10 03:18:50;;;;;;;;;;;22.30;41.80;;;;;;1591405;74;1941;-72
2021/10/10 03:20:52;;;;;;;;;;;22.20;41.50;;;;;;1594900;73;1122;-69
2021/10/10 03:22:53;;;;;;;;;;;22.40;41.50;;;;;;1591531;74;670;-70
2021/10/10 03:24:55;;;;;;;;;;;22.30;41.50;;;;;;1591423;74;794;-70
2021/10/10 03:26:57;;;;;;;;;;;22.30;41.60;;;;;;1587579;74;794;-72
2021/10/10 03:28:59;;;;;;;;;;;22.30;41.50;;;;;;1560216;74;698;-70
2021/10/10 03:31:03;;;;;;;;;;;22.30;41.40;;;;;;1595923;73;1069;-70
2021/10/10 03:33:04;;;;;;;;;;;22.30;41.40;;;;;;1589594;74;850;-72
2021/10/10 03:35:07;;;;;;;;;;;22.40;41.40;;;;;;1578843;74;795;-71
2021/10/10 03:37:09;;;;;;;;;;;22.30;41.30;;;;;;1583658;74;759;-70
2021/10/10 03:39:10;;;;;;;;;;;22.40;41.50;;;;;;1591051;74;1934;-70
2021/10/10 03:41:12;;;;;;;;;;;22.30;41.40;;;;;;1596923;73;1129;-70
2021/10/10 03:43:14;;;;;;;;;;;22.30;41.30;;;;;;1590864;74;720;-71
2021/10/10 03:45:16;;;;;;;;;;;22.30;41.30;;;;;;1575903;74;680;-71
2021/10/10 03:47:18;;;;;;;;;;;22.30;41.30;;;;;;1591205;74;680;-71
2021/10/10 03:49:20;;;;;;;;;;;22.40;41.20;;;;;;1598700;74;777;-72
2021/10/10 03:51:22;;;;;;;;;;;22.40;41.30;;;;;;1591173;73;1145;-71
2021/10/10 03:53:33;;;;;;;;;;;22.40;41.20;;;;;;1575092;74;925;-71
2021/10/10 03:55:34;;;;;;;;;;;22.30;41.20;;;;;;1586589;74;1619;-72
2021/10/10 03:57:36;;;;;;;;;;;22.30;41.20;;;;;;1591258;74;695;-74
2021/10/10 03:59:40;;;;;;;;;;;22.30;41.20;;;;;;1592151;74;1937;-75
2021/10/10 04:01:42;;;;;;;;;;;22.40;41.20;;;;;;1590285;73;2037;-73
2021/10/10 04:03:44;;;;;;;;;;;22.40;41.30;;;;;;1575958;74;794;-72
2021/10/10 04:05:47;;;;;;;;;;;22.40;41.20;;;;;;1591710;74;779;-74
2021/10/10 04:07:49;;;;;;;;;;;22.40;41.20;;;;;;1591181;74;770;-74
2021/10/10 04:09:51;;;;;;;;;;;22.40;41.10;;;;;;1593436;74;755;-75
2021/10/10 04:11:53;;;;;;;;;;;22.40;41.20;;;;;;1565855;74;1131;-73
2021/10/10 04:13:55;;;;;;;;;;;22.40;41.20;;;;;;1591038;74;753;-72
2021/10/10 04:15:57;;;;;;;;;;;22.30;41.10;;;;;;1591260;74;738;-72
2021/10/10 04:17:59;;;;;;;;;;;22.40;41.20;;;;;;1569141;74;1940;-72
2021/10/10 04:20:00;;;;;;;;;;;22.40;41.10;;;;;;1591855;74;761;-72
2021/10/10 04:22:02;;;;;;;;;;;22.40;41.00;;;;;;1589283;73;1122;-71
2021/10/10 04:24:04;;;;;;;;;;;22.40;41.10;;;;;;1588023;74;722;-73
2021/10/10 04:26:06;;;;;;;;;;;22.40;41.10;;;;;;1591248;74;688;-72
2021/10/10 04:28:08;;;;;;;;;;;22.30;41.10;;;;;;1591739;74;812;-73
2021/10/10 04:30:12;;;;;;;;;;;22.40;41.10;;;;;;1556059;74;726;-72
2021/10/10 04:32:14;;;;;;;;;;;22.40;41.10;;;;;;1576731;74;1157;-72
2021/10/10 04:34:15;;;;;;;;;;;22.40;41.10;;;;;;1587748;74;750;-72
2021/10/10 04:36:17;;;;;;;;;;;22.40;41.10;;;;;;1590806;74;765;-73
2021/10/10 04:38:19;;;;;;;;;;;22.40;41.20;;;;;;1591939;74;1937;-74
2021/10/10 04:40:21;;;;;;;;;;;22.40;41.20;;;;;;1588109;74;1143;-73
2021/10/10 04:42:23;;;;;;;;;;;22.40;41.00;;;;;;1568862;74;750;-75
2021/10/10 04:44:25;;;;;;;;;;;22.40;41.00;;;;;;1593911;74;753;-73
2021/10/10 04:46:27;;;;;;;;;;;22.40;41.10;;;;;;1591258;74;785;-72
2021/10/10 04:48:29;;;;;;;;;;;22.40;41.00;;;;;;1591226;74;774;-71
2021/10/10 04:50:30;;;;;;;;;;;22.40;41.00;;;;;;1585781;74;1105;-73
2021/10/10 04:52:32;;;;;;;;;;;22.40;41.00;;;;;;1553809;74;782;-72
2021/10/10 04:54:34;;;;;;;;;;;22.40;41.00;;;;;;1591104;74;807;-72
2021/10/10 04:56:36;;;;;;;;;;;22.50;41.00;;;;;;1569197;74;771;-73
2021/10/10 04:58:38;;;;;;;;;;;22.40;40.70;;;;;;1591754;74;1938;-73
2021/10/10 05:00:40;;;;;;;;;;;22.50;40.90;;;;;;1586489;73;1180;-74
2021/10/10 05:02:42;;;;;;;;;;;22.40;40.70;;;;;;1593161;74;776;-74
2021/10/10 05:04:43;;;;;;;;;;;22.40;40.80;;;;;;1591575;74;792;-71
2021/10/10 05:06:45;;;;;;;;;;;22.40;40.90;;;;;;1592332;74;769;-71
2021/10/10 05:08:47;;;;;;;;;;;22.40;41.00;;;;;;1591639;74;717;-72
2021/10/10 05:10:49;;;;;;;;;;;22.40;41.00;;;;;;1587560;74;1128;-72
2021/10/10 05:12:51;;;;;;;;;;;22.50;41.30;;;;;;1591146;74;818;-73
2021/10/10 05:14:53;;;;;;;;;;;22.50;41.30;;;;;;1596112;74;688;-71
2021/10/10 05:16:57;;;;;;;;;;;22.40;41.00;;;;;;1570754;74;669;-71
2021/10/10 05:18:58;;;;;;;;;;;22.50;41.20;;;;;;1566421;75;1922;-69
2021/10/10 05:21:00;;;;;;;;;;;22.60;41.10;;;;;;1591156;74;1166;-69
2021/10/10 05:23:02;;;;;;;;;;;22.60;41.00;;;;;;1591128;74;726;-70
2021/10/10 05:25:04;;;;;;;;;;;22.60;40.80;;;;;;1596954;74;732;-70
2021/10/10 05:27:06;;;;;;;;;;;22.70;40.70;;;;;;1582442;74;784;-73
2021/10/10 05:29:08;;;;;;;;;;;22.80;40.50;;;;;;1584091;74;745;-72
2021/10/10 05:31:10;;;;;;;;;;;22.70;40.50;;;;;;1591056;74;1135;-69
2021/10/10 05:33:12;;;;;;;;;;;22.80;40.50;;;;;;1590768;74;824;-69
2021/10/10 05:35:13;;;;;;;;;;;22.70;40.50;;;;;;1567246;74;782;-69
2021/10/10 05:37:15;;;;;;;;;;;22.80;40.70;;;;;;1584402;74;730;-69
2021/10/10 05:39:17;;;;;;;;;;;22.80;40.60;;;;;;1574437;74;1914;-72
2021/10/10 05:41:19;;;;;;;;;;;22.70;40.70;;;;;;1591142;74;1147;-69
2021/10/10 05:43:21;;;;;;;;;;;22.60;40.90;;;;;;1582949;74;691;-69
2021/10/10 05:45:23;;;;;;;;;;;22.70;41.00;;;;;;1582153;74;789;-72
2021/10/10 05:47:25;;;;;;;;;;;22.60;40.90;;;;;;1573956;74;689;-70
2021/10/10 05:49:27;;;;;;;;;;;22.60;41.10;;;;;;1582161;74;723;-69
2021/10/10 05:51:29;;;;;;;;;;;22.60;41.00;;;;;;1581980;75;1216;-68
2021/10/10 05:53:31;;;;;;;;;;;22.60;41.10;;;;;;1582241;74;799;-69
2021/10/10 05:55:33;;;;;;;;;;;22.60;41.30;;;;;;1578215;74;781;-69
2021/10/10 05:57:44;;;;;;;;;;;22.60;41.20;;;;;;1583074;74;790;-71
2021/10/10 05:59:39;;;;;;;;;;;22.60;41.30;;;;;;1582581;74;1921;-72
2021/10/10 06:01:41;;;;;;;;;;;22.60;41.50;;;;;;1580978;74;1149;-74
2021/10/10 06:03:42;;;;;;;;;;;22.60;41.40;;;;;;1584256;74;678;-70
2021/10/10 06:05:44;;;;;;;;;;;22.60;41.30;;;;;;1575402;74;722;-72
2021/10/10 06:07:46;;;;;;;;;;;22.60;41.30;;;;;;1580676;74;744;-73
2021/10/10 06:09:48;;;;;;;;;;;22.50;41.30;;;;;;1582567;75;705;-72
2021/10/10 06:11:50;;;;;;;;;;;22.60;41.30;;;;;;1583324;73;1196;-72
2021/10/10 06:13:52;;;;;;;;;;;22.60;41.20;;;;;;1583237;74;765;-72
2021/10/10 06:15:55;;;;;;;;;;;22.60;41.20;;;;;;1581957;74;717;-72
2021/10/10 06:17:57;;;;;;;;;;;22.60;41.30;;;;;;1583691;74;644;-73
2021/10/10 06:19:59;;;;;;;;;;;22.60;41.30;;;;;;1582011;75;1949;-73
2021/10/10 06:22:01;;;;;;;;;;;22.60;41.20;;;;;;1580277;74;1122;-72
2021/10/10 06:24:03;;;;;;;;;;;22.60;41.20;;;;;;1581202;74;646;-72
2021/10/10 06:26:05;;;;;;;;;;;22.60;41.20;;;;;;1582210;74;790;-71
2021/10/10 06:28:07;;;;;;;;;;;22.60;41.20;;;;;;1583454;74;793;-72
2021/10/10 06:30:09;;;;;;;;;;;22.60;41.20;;;;;;1583521;74;793;-72
2021/10/10 06:32:10;;;;;;;;;;;22.50;41.20;;;;;;1584669;74;1108;-72
2021/10/10 06:34:12;;;;;;;;;;;22.70;41.00;;;;;;1573091;74;871;-78
2021/10/10 06:36:19;;;;;;;;;;;22.90;39.90;;;;;;1586995;74;816;-75
2021/10/10 06:38:18;;;;;;;;;;;22.80;38.70;;;;;;1582654;74;1656;-72
2021/10/10 06:40:19;;;;;;;;;;;22.80;38.10;;;;;;1582228;73;1945;-73
2021/10/10 06:42:21;;;;;;;;;;;22.80;37.60;;;;;;1581335;74;749;-76
2021/10/10 06:44:23;;;;;;;;;;;22.90;37.30;;;;;;1583729;74;733;-73
2021/10/10 06:46:26;;;;;;;;;;;22.80;36.80;;;;;;1580050;74;761;-71
2021/10/10 06:48:28;;;;;;;;;;;22.70;36.20;;;;;;1577536;75;784;-75
2021/10/10 06:50:29;;;;;;;;;;;22.70;36.30;;;;;;1578902;74;1123;-70
2021/10/10 06:52:31;;;;;;;;;;;22.70;36.20;;;;;;1578379;74;706;-73
2021/10/10 06:54:33;;;;;;;;;;;22.70;36.00;;;;;;1582827;74;1065;-73
2021/10/10 06:56:35;;;;;;;;;;;22.70;36.00;;;;;;1584371;74;801;-71
2021/10/10 06:58:37;;;;;;;;;;;22.60;36.00;;;;;;1580088;74;718;-71
2021/10/10 07:00:39;;;;;;;;;;;22.60;36.00;;;;;;1579250;74;1937;-72
2021/10/10 07:02:45;;;;;;;;;;;22.60;37.10;;;;;;1580560;74;751;-72
2021/10/10 07:04:44;;;;;;;;;;;22.60;37.40;;;;;;1590622;74;1230;-72
2021/10/10 07:06:46;;;;;;;;;;;22.60;37.80;;;;;;1575174;74;791;-73
2021/10/10 07:08:48;;;;;;;;;;;22.70;38.10;;;;;;1589568;74;731;-75
2021/10/10 07:10:50;;;;;;;;;;;22.60;38.20;;;;;;1589092;72;2081;-68
2021/10/10 07:12:52;;;;;;;;;;;22.70;38.50;;;;;;1616801;73;690;-69
2021/10/10 07:14:54;;;;;;;;;;;22.80;38.60;;;;;;1601727;73;719;-68
2021/10/10 07:16:57;;;;;;;;;;;22.90;38.60;;;;;;1614069;73;709;-68
2021/10/10 07:18:59;;;;;;;;;;;22.90;38.60;;;;;;1617012;73;758;-68
2021/10/10 07:23:54;;;;;;;;;;;22.90;38.70;;;;;;1622033;72;719;-68
2021/10/10 07:25:33;;;;;;;;;;;22.90;38.70;;;;;;1581363;73;1355;-68
2021/10/10 07:27:35;;;;;;;;;;;22.80;38.60;;;;;;1595297;74;815;-68
2021/10/10 07:29:37;;;;;;;;;;;22.80;38.70;;;;;;1608402;73;759;-68
2021/10/10 07:31:39;;;;;;;;;;;22.80;38.80;;;;;;1606129;73;1156;-68
2021/10/10 07:33:41;;;;;;;;;;;22.90;39.00;;;;;;1601619;73;743;-68
2021/10/10 07:35:43;;;;;;;;;;;22.80;38.90;;;;;;1623796;72;688;-68
2021/10/10 07:37:45;;;;;;;;;;;22.70;39.00;;;;;;1592448;73;608;-68
2021/10/10 07:39:47;;;;;;;;;;;22.80;39.10;;;;;;1593600;73;1902;-68
2021/10/10 07:41:49;;;;;;;;;;;22.70;39.20;;;;;;1625972;71;1133;-66
2021/10/10 07:43:51;;;;;;;;;;;22.70;39.20;;;;;;1626437;72;676;-68
2021/10/10 07:45:53;;;;;;;;;;;22.70;39.40;;;;;;1619768;72;761;-68
2021/10/10 07:48:00;;;;;;;;;;;22.70;39.40;;;;;;1623257;72;534;-67
2021/10/10 07:49:59;;;;;;;;;;;22.70;39.50;;;;;;1622850;72;1557;-68
2021/10/10 07:52:02;;;;;;;;;;;22.70;39.50;;;;;;1594971;73;1439;-68
2021/10/10 07:54:04;;;;;;;;;;;22.80;39.60;;;;;;1619376;72;744;-69
2021/10/10 07:56:06;;;;;;;;;;;22.80;39.70;;;;;;1575390;74;741;-68
2021/10/10 07:58:08;;;;;;;;;;;22.80;39.80;;;;;;1601700;74;713;-67
2021/10/10 08:00:10;;;;;;;;;;;22.80;39.90;;;;;;1583567;73;1938;-68
2021/10/10 08:02:12;;;;;;;;;;;22.90;40.00;;;;;;1596121;73;1131;-68
2021/10/10 08:04:14;;;;;;;;;;;23.00;39.80;;;;;;1608553;73;756;-68
2021/10/10 08:06:16;;;;;;;;;;;23.10;39.90;;;;;;1581378;74;728;-67
2021/10/10 08:08:18;;;;;;;;;;;23.10;39.90;;;;;;1587997;73;793;-67
2021/10/10 08:10:20;;;;;;;;;;;23.10;39.90;;;;;;1624771;72;725;-68
2021/10/10 08:12:22;;;;;;;;;;;23.10;39.90;;;;;;1587557;73;1152;-68
2021/10/10 08:14:24;;;;;;;;;;;23.20;39.90;;;;;;1589168;73;765;-68
2021/10/10 08:16:25;;;;;;;;;;;23.20;40.00;;;;;;1600483;73;767;-68
2021/10/10 08:18:27;;;;;;;;;;;23.30;40.00;;;;;;1599678;73;772;-68
2021/10/10 08:20:29;;;;;;;;;;;23.30;39.90;;;;;;1595348;73;1927;-67
2021/10/10 08:22:34;;;;;;;;;;;23.40;39.70;;;;;;1621450;72;1090;-68
2021/10/10 08:24:36;;;;;;;;;;;23.40;39.90;;;;;;1610100;72;1619;-67
2021/10/10 08:26:38;;;;;;;;;;;23.50;39.90;;;;;;1610815;72;784;-67
2021/10/10 08:28:39;;;;;;;;;;;23.50;40.20;;;;;;1614685;72;691;-66
2021/10/10 08:30:41;;;;;;;;;;;23.50;40.10;;;;;;1614361;72;1076;-67
2021/10/10 08:32:45;;;;;;;;;;;23.50;40.00;;;;;;1608856;72;808;-68
2021/10/10 08:34:47;;;;;;;;;;;23.50;40.20;;;;;;1620987;72;772;-67
2021/10/10 08:36:49;;;;;;;;;;;23.50;40.30;;;;;;1607360;72;713;-67
2021/10/10 08:38:50;;;;;;;;;;;23.40;40.20;;;;;;1614301;72;768;-67
2021/10/10 08:40:53;;;;;;;;;;;23.40;40.20;;;;;;1604798;72;1902;-67
2021/10/10 08:42:56;;;;;;;;;;;23.30;40.30;;;;;;1614678;72;793;-67
2021/10/10 08:47:16;;;;;;;;;;;23.30;40.60;;;;;;1610174;72;862;-69
2021/10/10 08:49:17;;;;;;;;;;;23.30;40.50;;;;;;1610682;72;1214;-68
2021/10/10 08:51:20;;;;;;;;;;;23.30;40.50;;;;;;1626833;72;1105;-69
2021/10/10 08:53:22;;;;;;;;;;;23.20;40.50;;;;;;1627265;72;1063;-69
2021/10/10 08:55:25;;;;;;;;;;;23.30;40.70;;;;;;1627549;72;739;-68
2021/10/10 08:57:27;;;;;;;;;;;23.20;40.80;;;;;;1638220;72;747;-68
2021/10/10 08:59:31;;;;;;;;;;;23.20;41.20;;;;;;1574580;74;1303;-69
2021/10/10 09:01:36;;;;;;;;;;;23.20;41.40;;;;;;1596720;73;1922;-68
2021/10/10 09:03:37;;;;;;;;;;;23.20;41.30;;;;;;1603962;73;1148;-69
2021/10/10 09:05:38;;;;;;;;;;;23.10;41.30;;;;;;1638185;72;833;-69
2021/10/10 09:07:40;;;;;;;;;;;23.10;41.40;;;;;;1635190;72;735;-69
2021/10/10 09:09:43;;;;;;;;;;;23.10;41.70;;;;;;1631539;72;770;-69
2021/10/10 09:11:44;;;;;;;;;;;23.10;41.70;;;;;;1622897;71;1172;-69
2021/10/10 09:13:48;;;;;;;;;;;23.10;41.80;;;;;;1595159;73;713;-69
2021/10/10 09:15:50;;;;;;;;;;;23.10;42.10;;;;;;1600048;73;781;-68
2021/10/10 09:17:52;;;;;;;;;;;23.10;42.60;;;;;;1593693;73;789;-68
2021/10/10 09:19:56;;;;;;;;;;;23.10;43.00;;;;;;1609072;72;1928;-69
2021/10/10 09:21:59;;;;;;;;;;;23.20;43.90;;;;;;1612781;72;1141;-68
2021/10/10 09:24:01;;;;;;;;;;;23.10;44.20;;;;;;1617087;72;672;-68
2021/10/10 09:26:03;;;;;;;;;;;23.10;44.40;;;;;;1596498;73;758;-69
2021/10/10 09:28:10;;;;;;;;;;;23.30;44.60;;;;;;1584983;73;798;-69
2021/10/10 09:30:12;;;;;;;;;;;23.30;44.50;;;;;;1615900;72;998;-69
2021/10/10 09:32:17;;;;;;;;;;;23.30;44.30;;;;;;1627460;72;1115;-69
2021/10/10 09:34:19;;;;;;;;;;;23.30;44.30;;;;;;1591843;73;1171;-69
2021/10/10 09:36:23;;;;;;;;;;;23.30;44.30;;;;;;1582714;73;1225;-67
2021/10/10 09:38:26;;;;;;;;;;;23.30;44.40;;;;;;1612809;72;710;-68
2021/10/10 09:40:34;;;;;;;;;;;23.30;44.20;;;;;;1594753;73;1925;-68
2021/10/10 09:42:41;;;;;;;;;;;23.30;44.20;;;;;;1603551;73;1617;-70
2021/10/10 09:44:48;;;;;;;;;;;23.30;44.20;;;;;;1596091;73;767;-69
2021/10/10 09:46:50;;;;;;;;;;;23.30;44.10;;;;;;1613277;73;1611;-69
2021/10/10 09:48:52;;;;;;;;;;;23.30;44.10;;;;;;1594516;73;773;-69
2021/10/10 09:50:54;;;;;;;;;;;23.30;44.10;;;;;;1584862;73;1141;-69
2021/10/10 09:53:04;;;;;;;;;;;23.30;43.90;;;;;;1624048;72;672;-69
2021/10/10 09:55:06;;;;;;;;;;;23.40;43.90;;;;;;1627098;72;675;-69
2021/10/10 09:57:08;;;;;;;;;;;23.50;44.00;;;;;;1583959;73;710;-68
2021/10/10 09:59:11;;;;;;;;;;;23.30;43.90;;;;;;1610328;72;789;-69
2021/10/10 10:01:15;;;;;;;;;;;23.40;43.90;;;;;;1619121;72;1936;-68
2021/10/10 10:03:17;;;;;;;;;;;23.30;43.90;;;;;;1599526;73;1055;-69
2021/10/10 10:05:23;;;;;;;;;;;23.40;43.80;;;;;;1591697;72;820;-69
2021/10/10 10:07:26;;;;;;;;;;;23.30;43.70;;;;;;1610960;72;1036;-69
2021/10/10 10:09:28;;;;;;;;;;;23.30;43.80;;;;;;1582931;74;690;-69
2021/10/10 10:11:37;;;;;;;;;;;23.30;43.70;;;;;;1584571;73;1303;-68
2021/10/10 10:13:39;;;;;;;;;;;23.30;43.60;;;;;;1611012;72;702;-68
2021/10/10 10:15:41;;;;;;;;;;;23.30;43.60;;;;;;1629665;72;706;-69
2021/10/10 10:17:42;;;;;;;;;;;23.30;43.60;;;;;;1635360;72;676;-69
2021/10/10 10:19:44;;;;;;;;;;;23.40;43.40;;;;;;1632766;72;770;-67
2021/10/10 10:21:47;;;;;;;;;;;23.40;43.40;;;;;;1637065;71;1929;-70
2021/10/10 10:23:48;;;;;;;;;;;23.40;43.30;;;;;;1636492;72;719;-70
2021/10/10 10:25:50;;;;;;;;;;;23.40;43.30;;;;;;1634957;72;749;-70
2021/10/10 10:27:52;;;;;;;;;;;23.50;43.10;;;;;;1627459;72;715;-69
2021/10/10 10:29:55;;;;;;;;;;;23.50;43.10;;;;;;1624600;72;754;-69
2021/10/10 10:31:58;;;;;;;;;;;23.40;42.80;;;;;;1624175;72;1153;-70
2021/10/10 10:34:17;;;;;;;;;;;23.50;43.00;;;;;;1613615;73;708;-69
2021/10/10 10:36:21;;;;;;;;;;;23.30;42.90;;;;;;1592314;73;656;-69
2021/10/10 10:38:30;;;;;;;;;;;23.40;42.90;;;;;;1594591;73;1141;-66
2021/10/10 10:40:32;;;;;;;;;;;23.30;42.90;;;;;;1628741;72;1935;-69
2021/10/10 10:42:40;;;;;;;;;;;23.30;42.90;;;;;;1627246;71;1058;-69
2021/10/10 10:44:42;;;;;;;;;;;23.30;43.00;;;;;;1598396;73;777;-70
2021/10/10 10:47:03;;;;;;;;;;;23.20;42.90;;;;;;1622509;72;724;-69
2021/10/10 10:49:05;;;;;;;;;;;23.20;43.00;;;;;;1627218;72;731;-69
2021/10/10 10:51:16;;;;;;;;;;;23.20;43.00;;;;;;1626144;72;1119;-69
2021/10/10 10:53:24;;;;;;;;;;;23.20;43.00;;;;;;1627244;72;978;-69
2021/10/10 10:55:30;;;;;;;;;;;23.10;43.00;;;;;;1625618;72;715;-70
2021/10/10 10:57:41;;;;;;;;;;;23.10;43.00;;;;;;1590518;73;681;-70
2021/10/10 11:00:01;;;;;;;;;;;23.10;43.00;;;;;;1587397;74;1861;-70
2021/10/10 11:02:03;;;;;;;;;;;23.10;43.00;;;;;;1599820;73;1913;-69
2021/10/10 11:04:12;;;;;;;;;;;23.10;43.10;;;;;;1637717;72;719;-70
2021/10/10 11:06:16;;;;;;;;;;;23.00;42.90;;;;;;1629766;72;1190;-69
2021/10/10 11:08:19;;;;;;;;;;;23.10;43.10;;;;;;1583813;73;744;-69
2021/10/10 11:10:21;;;;;;;;;;;23.10;43.10;;;;;;1590526;73;682;-70
2021/10/10 11:12:30;;;;;;;;;;;23.10;43.00;;;;;;1586506;73;1155;-69
2021/10/10 11:14:32;;;;;;;;;;;23.00;43.00;;;;;;1625911;72;794;-69
2021/10/10 11:16:34;;;;;;;;;;;23.00;43.00;;;;;;1624109;72;638;-71
2021/10/10 11:18:36;;;;;;;;;;;23.00;43.00;;;;;;1625129;72;706;-70
2021/10/10 11:20:38;;;;;;;;;;;23.00;42.90;;;;;;1623629;72;1927;-68
2021/10/10 11:22:41;;;;;;;;;;;23.00;43.00;;;;;;1604684;73;1003;-69
2021/10/10 11:24:45;;;;;;;;;;;23.00;43.10;;;;;;1626702;72;740;-68
2021/10/10 11:26:47;;;;;;;;;;;23.00;42.90;;;;;;1621704;72;1168;-68
2021/10/10 11:28:50;;;;;;;;;;;23.10;43.10;;;;;;1630855;72;768;-67
2021/10/10 11:30:52;;;;;;;;;;;23.10;43.10;;;;;;1630121;72;1154;-67
2021/10/10 11:32:55;;;;;;;;;;;23.00;43.10;;;;;;1597575;73;1142;-67
2021/10/10 11:34:58;;;;;;;;;;;23.10;43.30;;;;;;1623598;72;762;-68
2021/10/10 11:37:00;;;;;;;;;;;23.20;43.10;;;;;;1621140;72;758;-67
2021/10/10 11:39:03;;;;;;;;;;;23.10;43.40;;;;;;1637189;72;690;-66
2021/10/10 11:41:06;;;;;;;;;;;23.20;43.40;;;;;;1616297;72;1933;-66
2021/10/10 11:43:08;;;;;;;;;;;23.20;43.40;;;;;;1621780;72;739;-67
2021/10/10 11:45:10;;;;;;;;;;;23.20;43.40;;;;;;1611934;72;757;-66
2021/10/10 11:47:26;;;;;;;;;;;23.20;42.80;;;;;;1624685;72;825;-67
2021/10/10 11:49:36;;;;;;;;;;;23.10;42.60;;;;;;1617638;72;851;-68
2021/10/10 11:51:38;;;;;;;;;;;23.10;42.60;;;;;;1620101;72;1201;-66
2021/10/10 11:53:40;;;;;;;;;;;23.10;42.50;;;;;;1632299;72;1546;-68
2021/10/10 11:55:43;;;;;;;;;;;23.10;42.50;;;;;;1583388;73;1362;-67
2021/10/10 11:57:44;;;;;;;;;;;23.00;42.20;;;;;;1600074;74;1636;-68
2021/10/10 11:59:52;;;;;;;;;;;23.00;41.90;;;;;;1620860;72;794;-67
2021/10/10 12:01:54;;;;;;;;;;;23.00;42.00;;;;;;1597946;73;1961;-68
2021/10/10 12:03:56;;;;;;;;;;;23.00;42.10;;;;;;1614150;73;708;-69
2021/10/10 12:05:58;;;;;;;;;;;23.00;42.30;;;;;;1602766;73;654;-69
2021/10/10 12:08:00;;;;;;;;;;;23.00;42.30;;;;;;1606468;73;666;-69
2021/10/10 12:10:03;;;;;;;;;;;23.00;42.30;;;;;;1622267;73;694;-69
2021/10/10 12:12:09;;;;;;;;;;;22.90;42.40;;;;;;1600598;73;1170;-69
2021/10/10 12:14:11;;;;;;;;;;;22.90;42.50;;;;;;1590713;74;767;-69
2021/10/10 12:16:13;;;;;;;;;;;22.90;42.40;;;;;;1606630;73;745;-69